ADDS METAR Data INFO
IDs: Format: Raw Decoded Include TAF

Data at: 0304 UTC 21 Oct 2017

KCEZ 210253Z AUTO 20014KT 10SM FEW100 17/M03 A2973 RMK AO2 SLP010 T01671033 55000
KCEZ 210153Z AUTO 22012KT 10SM BKN095 BKN110 18/M04 A2973 RMK AO2 SLP016 T01781039
KCEZ 210053Z AUTO 21010KT 10SM FEW120 17/M05 A2972 RMK AO2 SLP016 T01721050
KCEZ 202353Z AUTO 22014G20KT 10SM FEW120 21/M06 A2973 RMK AO2 SLP011 T02111056 10228 20194 56022
KCEZ 202253Z AUTO 21011KT 10SM FEW100 21/M03 A2975 RMK AO2 SLP022 T02061033
KCEZ 202153Z AUTO 23018G27KT 10SM FEW100 23/M05 A2978 RMK AO2 PK WND 22027/2144 SLP023 T02281050
KCEZ 202053Z AUTO 20018G26KT 10SM CLR 23/M04 A2981 RMK AO2 PK WND 21026/2053 SLP029 T02281044 58031
KCEZ 201953Z AUTO 20014G23KT 10SM FEW080 22/M01 A2986 RMK AO2 SLP052 T02171006
KCEZ 201853Z AUTO 23009G25KT 190V260 10SM CLR 21/01 A2990 RMK AO2 SLP071 T02060006
KCEZ 201753Z AUTO 21015G21KT 10SM CLR 20/02 A2992 RMK AO2 SLP075 T02000022 10200 20044 56016
KCEZ 201653Z AUTO 20012G17KT 10SM CLR 18/03 A2993 RMK AO2 SLP077 T01830033
KCEZ 201553Z AUTO 19011KT 10SM FEW065 17/04 A2995 RMK AO2 SLP086 T01670039
KCEZ 201453Z AUTO 00000KT 10SM CLR 11/03 A2997 RMK AO2 SLP106 T01110033 53005
KCEZ 201353Z AUTO 01004KT 10SM CLR 06/02 A2995 RMK AO2 SLP108 T00560017
KCEZ 201253Z AUTO 00000KT 10SM CLR 05/02 A2996 RMK AO2 SLP106 T00500017
KCEZ 201153Z AUTO 06004KT 10SM CLR 06/02 A2995 RMK AO2 SLP094 T00560017 10094 20044 56010
KCEZ 201053Z AUTO 07003KT 10SM CLR 05/01 A2996 RMK AO2 SLP093 T00500006
KCEZ 200953Z AUTO 00000KT 10SM CLR 07/02 A2997 RMK AO2 SLP094 T00720017
KCEZ 200853Z AUTO 07007KT 10SM FEW055 BKN100 OVC120 09/02 A2999 RMK AO2 SLP099 T00940017 58012
KCEZ 200753Z AUTO 00000KT 10SM BKN110 07/01 A3001 RMK AO2 SLP109 T00670006
KCEZ 200653Z AUTO 12003KT 10SM BKN095 06/01 A3002 RMK AO2 SLP112 T00610006 402170017
KCEZ 200553Z AUTO 00000KT 10SM BKN095 08/01 A3003 RMK AO2 SLP113 T00780006 10189 20078 58003
KCEZ 200453Z AUTO 07004KT 10SM SCT100 11/01 A3004 RMK AO2 SLP120 T01060011
KCEZ 200353Z AUTO 08004KT 10SM OVC100 11/00 A3004 RMK AO2 SLP123 T01060000
KCEZ 200253Z AUTO 06005KT 10SM FEW120 10/M01 A3004 RMK AO2 SLP135 T01001011 53003
KCEZ 200153Z AUTO 06006KT 10SM CLR 11/01 A3003 RMK AO2 SLP137 T01060006
KCEZ 200053Z AUTO 13003KT 10SM OVC095 13/01 A3003 RMK AO2 SLP131 T01330011
KCEZ 192353Z AUTO 30005KT 10SM BKN110 19/M02 A3003 RMK AO2 SLP124 T01891017 10217 20172 58010
KCEZ 192253Z AUTO 24007KT 210V280 10SM SCT110 20/M04 A3005 RMK AO2 SLP129 T02001039
KCEZ 192153Z AUTO 35005KT 10SM OVC100 21/M04 A3006 RMK AO2 WSHFT 2047 SLP132 T02061039
KCEZ 192107Z AUTO 30013KT 10SM OVC100 18/M03 A3006 RMK AO2 WSHFT 2047 T01831033
KCEZ 192053Z AUTO 29011KT 9SM OVC100 19/M03 A3007 RMK AO2 SLP140 T01891033 56019
KCEZ 191953Z AUTO 22010KT 10SM BKN120 21/M02 A3009 RMK AO2 SLP142 T02061022
KCEZ 191853Z AUTO 22012KT 10SM BKN110 21/M05 A3012 RMK AO2 SLP151 T02111050
KCEZ 191753Z AUTO 10SM SCT100 21/M04 A3014 RMK AO2 SLP155 T02061039 10206 20039 58006
KCEZ 191653Z AUTO 09003KT 10SM FEW120 17/M03 A3015 RMK AO2 SLP163 T01671028
KCEZ 191553Z AUTO 00000KT 10SM CLR 15/M02 A3016 RMK AO2 SLP166 T01501022